Mildland, Texas
Current Conditions -  °F | °C
As of 5:56 AM on Friday 21 Nov 2014 (Local Time) from KAQV Reporting Station
Light Rain Light Rain  
Wind Chill: 55°   Ceiling: 6000
Heat Index: 55°   Visibility: 10mi
Dew Point: 52°   Wind: 0mph
Humidity: 89%   Direction: NA
Pressure: 30.18"   Gusts: NA
Location:  31.4918°N, 93.8786°W
Report Text: KAQV 211156Z AUTO 00000KT 10SM -RA OVC060 13/11 A3018 RMK AO2 SLP220 P0001 60002 70002 T01280111 10144 20128 53007
Loading
Personal Weather Stations






























Interactive Weather Map New forecast layout! Learn more

10-Day Weather Forecast

Advertisements
Track Severe Weather on mobile